.
WxDataArchive / Data Records for 2016-03-18
2016-03-17 March 2016 2016-03-19

Data Records for Friday, 18 March 2016

Time	Temp	Chill	HIndex	Humid	Dewpt	 Wind 	HiWind	WindDir	Rain 	Barom
-----	----	-----	------	-----	-----	------	------	-------	-----	-----
00:00	40.2	40.2	40.2	61	27.8	0	0	---	0.00	29.902 
00:05	40.1	40.1	40.1	61	27.7	0	0	---	0.00	29.902 
00:10	39.9	39.9	39.9	62	28.0	0	0	---	0.00	29.902 
00:15	39.6	39.6	39.6	62	27.7	0	0	---	0.00	29.902 
00:20	39.6	39.6	39.6	63	28.1	0	0	---	0.00	29.902 
00:25	39.6	39.6	39.6	63	28.1	0	0	---	0.00	29.902 
00:30	39.5	39.5	39.5	62	27.6	0	0	---	0.00	29.903 
00:35	39.5	39.5	39.5	63	28.0	0	0	---	0.00	29.903 
00:40	39.6	39.6	39.6	63	28.1	0	0	---	0.00	29.903 
00:45	39.9	39.9	39.9	63	28.3	0	0	---	0.00	29.905 
00:50	40.2	40.2	40.2	62	28.2	0	0	---	0.00	29.905 
00:55	40.3	40.3	40.3	62	28.3	0	0	---	0.00	29.905 
01:00	40.2	40.2	40.2	62	28.2	0	0	---	0.00	29.904 
01:05	40.3	40.3	40.3	62	28.3	0	1	248	0.00	29.904 
01:10	40.3	40.3	40.3	62	28.3	0	0	---	0.00	29.904 
01:15	40.2	40.2	40.2	62	28.2	0	0	---	0.00	29.902 
01:20	40.1	40.1	40.1	62	28.1	0	0	---	0.00	29.902 
01:25	39.9	39.9	39.9	63	28.3	0	0	---	0.00	29.902 
01:30	39.8	39.8	39.8	63	28.2	0	0	---	0.00	29.907 
01:35	39.5	39.5	39.5	63	28.0	0	0	---	0.00	29.907 
01:40	39.5	39.5	39.5	63	28.0	0	0	---	0.00	29.907 
01:45	39.3	39.3	39.3	64	28.2	0	0	---	0.00	29.908 
01:50	39.6	39.6	39.6	63	28.1	0	2	248	0.00	29.908 
01:55	40.1	40.1	40.1	62	28.1	0	0	---	0.00	29.908 
02:00	40.5	40.5	40.5	61	28.1	0	0	---	0.00	29.907 
02:05	40.9	40.9	40.9	60	28.1	0	1	248	0.00	29.907 
02:10	41.1	41.1	41.1	59	27.9	0	0	---	0.00	29.907 
02:15	41.2	41.2	41.2	58	27.6	0	0	---	0.00	29.901 
02:20	41.2	41.2	41.2	59	28.0	0	1	248	0.00	29.901 
02:25	41.3	41.3	41.3	59	28.1	0	1	248	0.00	29.901 
02:30	41.2	41.2	41.2	59	28.0	0	0	---	0.00	29.899 
02:35	41.1	41.1	41.1	59	27.9	0	0	---	0.00	29.899 
02:40	40.9	40.9	40.9	59	27.7	0	0	---	0.00	29.899 
02:45	40.8	40.8	40.8	59	27.6	0	0	---	0.00	29.899 
02:50	40.5	40.5	40.5	59	27.3	0	0	---	0.00	29.899 
02:55	40.3	40.3	40.3	60	27.5	0	0	---	0.00	29.899 
03:00	39.9	39.9	39.9	60	27.2	0	0	---	0.00	29.898 
03:05	39.6	39.6	39.6	61	27.3	0	0	---	0.00	29.898 
03:10	39.3	39.3	39.3	62	27.4	0	0	---	0.00	29.898 
03:15	39.2	39.2	39.2	62	27.3	0	0	---	0.00	29.900 
03:20	39.2	39.2	39.2	62	27.3	0	0	---	0.00	29.900 
03:25	39.2	39.2	39.2	62	27.3	0	1	248	0.00	29.900 
03:30	39.1	39.1	39.1	62	27.2	0	0	---	0.00	29.901 
03:35	39.1	39.1	39.1	62	27.2	0	0	---	0.00	29.901 
03:40	38.9	38.9	38.9	63	27.4	0	0	---	0.00	29.901 
03:45	38.8	38.8	38.8	63	27.3	0	0	---	0.00	29.902 
03:50	38.6	38.6	38.6	64	27.5	0	0	---	0.00	29.902 
03:55	38.6	38.6	38.6	64	27.5	0	0	---	0.00	29.902 
04:00	38.6	38.6	38.6	65	27.9	0	1	248	0.00	29.901 
04:05	39.2	39.2	39.2	65	28.4	0	1	248	0.00	29.901 
04:10	39.5	39.5	39.5	64	28.3	0	1	248	0.00	29.901 
04:15	39.8	39.8	39.8	64	28.6	0	1	248	0.00	29.898 
04:20	39.9	39.9	39.9	63	28.3	0	0	---	0.00	29.898 
04:25	40.1	40.1	40.1	63	28.5	0	1	248	0.00	29.898 
04:30	40.1	40.1	40.1	63	28.5	0	1	248	0.00	29.898 
04:35	40.2	40.2	40.2	62	28.2	0	1	248	0.00	29.898 
04:40	40.3	40.3	40.3	62	28.3	0	1	248	0.00	29.898 
04:45	40.3	40.3	40.3	62	28.3	0	1	248	0.00	29.898 
04:50	40.3	40.3	40.3	62	28.3	0	0	---	0.00	29.898 
04:55	40.3	40.3	40.3	62	28.3	0	1	248	0.00	29.898 
05:00	40.3	40.3	40.3	62	28.3	0	1	248	0.00	29.896 
05:05	40.3	40.3	40.3	62	28.3	0	0	---	0.00	29.896 
05:10	40.3	40.3	40.3	62	28.3	0	1	248	0.00	29.896 
05:15	40.2	40.2	40.2	62	28.2	0	1	248	0.00	29.898 
05:20	40.1	40.1	40.1	62	28.1	0	0	---	0.00	29.898 
05:25	39.9	39.9	39.9	62	28.0	0	1	248	0.00	29.898 
05:30	39.8	39.8	39.8	62	27.9	0	1	248	0.00	29.901 
05:35	39.8	39.8	39.8	62	27.9	0	0	---	0.00	29.901 
05:40	39.9	39.9	39.9	62	28.0	0	1	248	0.00	29.901 
05:45	39.8	39.8	39.8	62	27.9	0	0	---	0.00	29.905 
05:50	39.6	39.6	39.6	62	27.7	0	1	248	0.00	29.905 
05:55	39.3	39.3	39.3	63	27.8	0	0	---	0.00	29.905 
06:00	39.2	39.2	39.2	64	28.1	0	0	---	0.00	29.906 
06:05	39.1	39.1	39.1	64	28.0	0	1	248	0.00	29.906 
06:10	39.2	39.2	39.2	64	28.1	0	1	248	0.00	29.906 
06:15	39.2	39.2	39.2	64	28.1	0	1	248	0.00	29.919 
06:20	39.3	39.3	39.3	64	28.2	0	1	248	0.00	29.919 
06:25	39.5	39.5	39.5	64	28.3	0	2	248	0.00	29.919 
06:30	39.6	39.6	39.6	64	28.4	0	2	248	0.00	29.919 
06:35	39.8	39.8	39.8	63	28.2	0	2	248	0.00	29.919 
06:40	39.8	39.8	39.8	63	28.2	0	1	248	0.00	29.919 
06:45	39.6	39.6	39.6	63	28.1	0	1	248	0.00	29.926 
06:50	39.5	39.5	39.5	64	28.3	0	1	248	0.00	29.926 
06:55	39.3	39.3	39.3	64	28.2	0	1	248	0.00	29.926 
07:00	39.3	39.3	39.3	63	27.8	0	1	248	0.00	29.931 
07:05	39.2	39.2	39.2	64	28.1	0	1	248	0.00	29.931 
07:10	39.1	39.1	39.1	64	28.0	0	1	248	0.00	29.931 
07:15	38.8	38.8	38.8	64	27.7	0	1	248	0.00	29.935 
07:20	38.6	38.6	38.6	65	27.9	0	1	248	0.00	29.935 
07:25	38.5	38.5	38.5	65	27.8	0	0	---	0.00	29.935 
07:30	38.2	38.2	38.2	65	27.5	0	0	---	0.00	29.939 
07:35	38.0	38.0	38.0	65	27.3	0	0	---	0.00	29.939 
07:40	37.8	37.8	37.8	65	27.1	0	0	---	0.00	29.939 
07:45	37.6	37.6	37.6	66	27.3	0	0	---	0.00	29.942 
07:50	37.3	37.3	37.3	66	27.0	0	0	---	0.00	29.942 
07:55	37.0	37.0	37.0	67	27.1	0	0	---	0.00	29.942 
08:00	36.9	36.9	36.9	68	27.3	0	0	---	0.00	29.951 
08:05	36.9	36.9	36.9	68	27.3	0	0	---	0.00	29.951 
08:10	36.9	36.9	36.9	68	27.3	0	1	248	0.00	29.951 
08:15	37.0	37.0	37.0	68	27.4	0	1	248	0.00	29.957 
08:20	37.3	37.3	37.3	68	27.7	0	1	248	0.00	29.957 
08:25	37.6	37.6	37.6	67	27.7	0	1	248	0.00	29.957 
08:30	38.0	38.0	38.0	65	27.3	0	2	248	0.00	29.956 
08:35	38.5	38.5	38.5	63	27.0	0	3	248	0.00	29.956 
08:40	38.8	38.8	38.8	62	26.9	1	2	248	0.00	29.956 
08:45	39.2	39.2	39.2	60	26.5	1	3	248	0.00	29.960 
08:50	39.5	39.5	39.5	59	26.4	1	3	248	0.00	29.960 
08:55	39.8	39.8	39.8	58	26.2	1	4	270	0.00	29.960 
09:00	39.9	39.9	39.9	58	26.3	1	2	270	0.00	29.963 
09:05	40.1	40.1	40.1	57	26.1	1	4	270	0.00	29.963 
09:10	40.2	40.2	40.2	57	26.2	1	4	270	0.00	29.963 
09:15	40.3	40.3	40.3	55	25.4	2	5	315	0.00	29.971 
09:20	40.5	40.5	40.5	54	25.2	1	4	315	0.00	29.971 
09:25	40.6	40.6	40.6	51	23.9	3	6	292	0.00	29.971 
09:30	40.8	40.8	40.8	50	23.6	2	5	292	0.00	29.972 
09:35	40.9	40.9	40.9	49	23.2	3	7	292	0.00	29.972 
09:40	40.9	40.9	40.9	48	22.7	3	5	270	0.00	29.972 
09:45	41.1	41.1	41.1	49	23.4	2	7	270	0.00	29.975 
09:50	41.3	41.3	41.3	47	22.6	3	6	270	0.00	29.975 
09:55	41.3	41.3	41.3	47	22.6	2	4	270	0.00	29.975 
10:00	41.5	41.5	41.5	47	22.8	3	5	270	0.00	29.978 
10:05	41.5	41.5	41.5	48	23.3	3	6	270	0.00	29.978 
10:10	41.8	41.8	41.8	47	23.1	3	5	315	0.00	29.978 
10:15	42.2	42.2	42.2	47	23.4	3	6	315	0.00	29.991 
10:20	42.5	42.5	42.5	48	24.2	2	5	292	0.00	29.991 
10:25	42.6	42.6	42.6	48	24.3	2	5	270	0.00	29.991 
10:30	42.5	42.5	42.5	47	23.7	3	5	270	0.00	29.993 
10:35	42.8	42.8	42.8	47	24.0	2	4	292	0.00	29.993 
10:40	42.9	42.9	42.9	46	23.6	3	7	270	0.00	29.993 
10:45	42.8	40.6	42.8	47	24.0	4	9	270	0.00	30.001 
10:50	42.9	40.7	42.9	47	24.1	4	8	292	0.00	30.001 
10:55	43.3	43.3	43.3	47	24.4	3	5	270	0.00	30.001 
11:00	43.6	41.5	43.6	47	24.7	4	8	270	0.00	30.001 
11:05	43.6	41.5	43.6	47	24.7	4	11	270	0.00	30.001 
11:10	43.3	40.3	43.3	47	24.4	5	9	270	0.00	30.001 
11:15	43.6	43.6	43.6	49	25.7	3	6	270	0.00	30.005 
11:20	43.8	41.7	43.8	48	25.4	4	10	292	0.00	30.005 
11:25	44.2	42.2	44.2	47	25.3	4	7	292	0.00	30.005 
11:30	44.6	44.6	44.6	48	26.1	3	9	292	0.00	30.009 
11:35	44.9	44.9	44.9	48	26.4	3	7	292	0.00	30.009 
11:40	44.5	42.5	44.5	49	26.5	4	7	270	0.00	30.009 
11:45	44.8	42.9	44.8	50	27.3	4	6	270	0.00	30.013 
11:50	44.6	42.6	44.6	50	27.1	4	9	270	0.00	30.013 
11:55	44.8	42.9	44.8	50	27.3	4	7	270	0.00	30.013 
12:00	44.9	44.9	44.9	50	27.4	3	6	292	0.00	30.018 
12:05	45.2	45.2	45.2	50	27.7	3	7	270	0.00	30.018 
12:10	45.2	43.3	45.2	49	27.2	4	10	315	0.00	30.018 
12:15	45.2	43.3	45.2	50	27.7	4	10	292	0.00	30.025 
12:20	45.2	43.3	45.2	50	27.7	4	10	292	0.00	30.025 
12:25	45.7	43.9	45.7	50	28.1	4	7	292	0.00	30.025 
12:30	45.7	45.7	45.7	51	28.6	3	5	270	0.00	30.029 
12:35	46.0	44.2	46.0	51	28.9	4	10	315	0.00	30.029 
12:40	46.1	46.1	46.1	50	28.5	3	7	315	0.00	30.029 
12:45	46.2	46.2	46.2	51	29.1	3	5	270	0.00	30.027 
12:50	46.4	46.4	46.4	52	29.7	3	5	270	0.00	30.027 
12:55	46.8	46.8	46.8	54	31.0	2	6	270	0.00	30.027 
13:00	47.1	47.1	47.1	51	29.9	3	6	292	0.00	30.030 
13:05	47.1	47.1	47.1	53	30.9	3	8	292	0.00	30.030 
13:10	47.7	47.7	47.7	51	30.5	2	6	270	0.00	30.030 
13:15	47.9	47.9	47.9	51	30.7	3	6	270	0.00	30.033 
13:20	48.0	48.0	48.0	50	30.3	2	4	292	0.00	30.033 
13:25	48.6	48.6	48.6	51	31.3	2	4	292	0.00	30.033 
13:30	48.5	48.5	48.5	50	30.7	3	7	315	0.00	30.034 
13:35	47.6	47.6	47.6	51	30.4	2	5	338	0.00	30.034 
13:40	48.2	48.2	48.2	50	30.4	2	6	270	0.00	30.034 
13:45	48.3	48.3	48.3	49	30.0	3	9	338	0.00	30.032 
13:50	48.0	48.0	48.0	50	30.3	2	6	292	0.00	30.032 
13:55	47.1	47.1	47.1	49	28.9	2	6	315	0.00	30.032 
14:00	47.1	47.1	47.1	50	29.4	2	6	315	0.00	30.033 
14:05	47.6	47.6	47.6	52	30.9	3	5	292	0.00	30.033 
14:10	47.6	47.6	47.6	51	30.4	2	7	338	0.00	30.033 
14:15	47.9	47.9	47.9	49	29.7	2	5	338	0.00	30.032 
14:20	48.0	48.0	48.0	48	29.3	2	5	338	0.00	30.032 
14:25	48.3	48.3	48.3	49	30.0	3	5	315	0.00	30.032 
14:30	47.6	47.6	47.6	51	30.4	1	4	292	0.00	30.033 
14:35	48.0	48.0	48.0	50	30.3	1	4	292	0.00	30.033 
14:40	48.5	48.5	48.5	50	30.7	2	5	338	0.00	30.033 
14:45	48.0	48.0	48.0	50	30.3	2	5	292	0.00	30.025 
14:50	47.7	47.7	47.7	50	30.0	1	5	315	0.00	30.025 
14:55	47.9	47.9	47.9	51	30.7	1	4	0	0.00	30.025 
15:00	48.6	48.6	48.6	48	29.8	3	6	315	0.00	30.019 
15:05	48.6	48.6	48.6	49	30.3	2	5	270	0.00	30.019 
15:10	48.9	48.9	48.9	49	30.6	1	5	292	0.00	30.019 
15:15	48.6	48.6	48.6	46	28.8	2	6	315	0.00	30.020 
15:20	48.6	48.6	48.6	47	29.3	1	5	315	0.00	30.020 
15:25	48.8	48.8	48.8	49	30.5	2	6	292	0.00	30.020 
15:30	48.6	48.6	48.6	49	30.3	1	4	270	0.00	30.018 
15:35	48.6	48.6	48.6	48	29.8	0	3	270	0.00	30.018 
15:40	48.6	48.6	48.6	46	28.8	1	6	315	0.00	30.018 
15:45	48.6	48.6	48.6	48	29.8	2	5	338	0.00	30.018 
15:50	48.5	48.5	48.5	46	28.7	2	5	315	0.00	30.018 
15:55	48.6	48.6	48.6	46	28.8	1	3	338	0.00	30.018 
16:00	48.9	48.9	48.9	46	29.0	1	5	338	0.00	30.018 
16:05	48.9	48.9	48.9	48	30.1	1	4	338	0.00	30.018 
16:10	49.2	49.2	49.2	46	29.3	1	3	292	0.00	30.018 
16:15	49.2	49.2	49.2	46	29.3	2	5	270	0.00	30.016 
16:20	48.9	48.9	48.9	46	29.0	1	4	292	0.00	30.016 
16:25	48.9	48.9	48.9	45	28.5	1	3	292	0.00	30.016 
16:30	48.6	48.6	48.6	44	27.7	1	3	315	0.00	30.010 
16:35	49.1	49.1	49.1	44	28.1	1	2	315	0.00	30.010 
16:40	49.5	49.5	49.5	43	27.9	2	5	315	0.00	30.010 
16:45	50.1	50.1	50.1	45	29.6	1	3	315	0.00	30.002 
16:50	49.9	49.9	49.9	43	28.3	1	4	315	0.00	30.002 
16:55	49.8	49.8	49.8	45	29.3	1	3	315	0.00	30.002 
17:00	49.6	49.6	49.6	44	28.6	2	4	270	0.00	30.002 
17:05	49.4	49.4	49.4	43	27.9	1	4	270	0.00	30.002 
17:10	48.9	48.9	48.9	44	28.0	1	3	292	0.00	30.002 
17:15	48.8	48.8	48.8	43	27.3	1	2	292	0.00	30.009 
17:20	48.6	48.6	48.6	45	28.2	0	2	292	0.00	30.009 
17:25	49.2	49.2	49.2	44	28.2	1	3	292	0.00	30.009 
17:30	49.5	49.5	49.5	43	27.9	1	4	315	0.00	30.002 
17:35	49.4	49.4	49.4	40	26.1	1	2	315	0.00	30.002 
17:40	49.1	49.1	49.1	41	26.4	0	2	315	0.00	30.002 
17:45	48.8	48.8	48.8	42	26.7	0	1	315	0.00	30.009 
17:50	48.5	48.5	48.5	42	26.5	1	3	315	0.00	30.009 
17:55	48.5	48.5	48.5	43	27.0	0	3	315	0.00	30.009 
18:00	48.8	48.8	48.8	44	27.9	1	3	315	0.00	30.018 
18:05	49.1	49.1	49.1	43	27.6	1	2	315	0.00	30.018 
18:10	48.9	48.9	48.9	42	26.8	1	4	315	0.00	30.018 
18:15	48.5	48.5	48.5	43	27.0	1	4	338	0.00	30.031 
18:20	48.2	48.2	48.2	44	27.3	1	3	270	0.00	30.031 
18:25	47.9	47.9	47.9	45	27.6	1	3	270	0.00	30.031 
18:30	47.9	47.9	47.9	46	28.1	1	5	292	0.00	30.029 
18:35	47.7	47.7	47.7	45	27.4	0	2	292	0.00	30.029 
18:40	47.7	47.7	47.7	45	27.4	1	4	292	0.00	30.029 
18:45	47.7	47.7	47.7	44	26.9	1	3	292	0.00	30.030 
18:50	47.7	47.7	47.7	44	26.9	0	2	292	0.00	30.030 
18:55	47.7	47.7	47.7	44	26.9	0	1	292	0.00	30.030 
19:00	47.6	47.6	47.6	44	26.8	0	1	292	0.00	30.023 
19:05	47.4	47.4	47.4	44	26.6	0	2	292	0.00	30.023 
19:10	47.3	47.3	47.3	45	27.0	0	2	292	0.00	30.023 
19:15	47.1	47.1	47.1	46	27.4	0	2	292	0.00	30.031 
19:20	47.0	47.0	47.0	47	27.8	0	2	292	0.00	30.031 
19:25	46.8	46.8	46.8	48	28.2	0	2	292	0.00	30.031 
19:30	46.7	46.7	46.7	50	29.1	0	2	292	0.00	30.033 
19:35	46.4	46.4	46.4	50	28.8	0	2	292	0.00	30.033 
19:40	46.2	46.2	46.2	51	29.1	0	1	292	0.00	30.033 
19:45	46.0	46.0	46.0	51	28.9	0	1	292	0.00	30.035 
19:50	45.8	45.8	45.8	51	28.7	0	1	292	0.00	30.035 
19:55	45.7	45.7	45.7	52	29.1	0	1	292	0.00	30.035 
20:00	45.4	45.4	45.4	52	28.8	0	2	292	0.00	30.037 
20:05	45.2	45.2	45.2	52	28.6	0	1	292	0.00	30.037 
20:10	45.2	45.2	45.2	52	28.6	0	1	292	0.00	30.037 
20:15	45.1	45.1	45.1	53	29.0	0	0	---	0.00	30.044 
20:20	44.8	44.8	44.8	53	28.7	0	1	292	0.00	30.044 
20:25	44.6	44.6	44.6	54	29.0	0	1	292	0.00	30.044 
20:30	44.3	44.3	44.3	54	28.7	0	0	---	0.00	30.047 
20:35	44.2	44.2	44.2	55	29.1	0	0	---	0.00	30.047 
20:40	44.1	44.1	44.1	55	29.0	0	1	292	0.00	30.047 
20:45	43.8	43.8	43.8	56	29.1	0	0	---	0.00	30.050 
20:50	43.6	43.6	43.6	56	29.0	0	0	---	0.00	30.050 
20:55	43.6	43.6	43.6	56	29.0	0	0	---	0.00	30.050 
21:00	43.5	43.5	43.5	57	29.3	0	0	---	0.00	30.058 
21:05	43.5	43.5	43.5	57	29.3	0	0	---	0.00	30.058 
21:10	43.5	43.5	43.5	57	29.3	0	0	---	0.00	30.058 
21:15	43.5	43.5	43.5	57	29.3	0	1	292	0.00	30.062 
21:20	43.5	43.5	43.5	58	29.7	0	1	292	0.00	30.062 
21:25	43.5	43.5	43.5	58	29.7	0	0	---	0.00	30.062 
21:30	43.5	43.5	43.5	58	29.7	0	0	---	0.00	30.067 
21:35	43.5	43.5	43.5	58	29.7	0	0	---	0.00	30.067 
21:40	43.5	43.5	43.5	58	29.7	1	4	292	0.00	30.067 
21:45	43.5	43.5	43.5	57	29.3	1	3	270	0.00	30.069 
21:50	43.5	43.5	43.5	57	29.3	1	3	270	0.00	30.069 
21:55	43.5	43.5	43.5	57	29.3	1	5	292	0.00	30.069 
22:00	43.3	43.3	43.3	58	29.5	1	5	292	0.00	30.072 
22:05	43.2	43.2	43.2	58	29.4	1	4	315	0.00	30.072 
22:10	43.1	43.1	43.1	58	29.3	1	4	0	0.00	30.072 
22:15	42.8	42.8	42.8	59	29.5	1	4	0	0.00	30.067 
22:20	42.5	42.5	42.5	60	29.6	0	2	0	0.00	30.067 
22:25	42.2	42.2	42.2	60	29.3	1	3	292	0.00	30.067 
22:30	42.1	42.1	42.1	61	29.6	1	5	292	0.00	30.070 
22:35	41.8	41.8	41.8	61	29.4	1	6	0	0.00	30.070 
22:40	41.6	41.6	41.6	61	29.2	0	2	338	0.00	30.070 
22:45	41.5	41.5	41.5	62	29.5	1	3	338	0.00	30.067 
22:50	41.3	41.3	41.3	62	29.3	1	5	292	0.00	30.067 
22:55	41.1	41.1	41.1	62	29.1	1	4	338	0.00	30.067 
23:00	40.9	40.9	40.9	63	29.3	1	4	338	0.00	30.077 
23:05	40.6	40.6	40.6	63	29.0	1	3	338	0.00	30.077 
23:10	40.5	40.5	40.5	64	29.3	1	3	338	0.00	30.077 
23:15	40.3	40.3	40.3	64	29.1	0	2	338	0.00	30.083 
23:20	40.2	40.2	40.2	65	29.4	1	2	338	0.00	30.083 
23:25	40.1	40.1	40.1	65	29.3	0	2	338	0.00	30.083 
23:30	39.9	39.9	39.9	65	29.1	1	3	338	0.00	30.083 
23:35	39.9	39.9	39.9	65	29.1	1	3	292	0.00	30.083 
23:40	39.8	39.8	39.8	66	29.4	1	3	292	0.00	30.083 
23:45	39.8	39.8	39.8	66	29.4	0	2	315	0.00	30.083 
23:50	39.6	39.6	39.6	66	29.2	0	2	315	0.00	30.083 
23:55	39.6	39.6	39.6	65	28.8	1	5	315	0.00	30.083 

CoCoRaHS
IN-AL-39
A2 Web Hosting
Creative Commons License
GoDaddy
search engine by freefind advanced

loaded 2018-11-19 10:23:36 • last modified 2010-11-18 10:43:29
Privacy PolicyDisclaimer
• wx.awcolley.com is powered by PmWiki v.2002016 •
• all content (unless otherwise noted) © 2018 A W Colley